createdAt,value
2022-09-12T00:00:13.680Z,101302.66
2022-09-12T00:02:40.246Z,101294.19
2022-09-12T00:05:07.434Z,101295.38
2022-09-12T00:07:34.580Z,101295.63
2022-09-12T00:10:01.232Z,101290.13
2022-09-12T00:12:27.949Z,101293.41
2022-09-12T00:14:54.767Z,101291.72
2022-09-12T00:17:21.388Z,101292.59
2022-09-12T00:19:48.265Z,101291.38
2022-09-12T00:22:14.858Z,101293.06
2022-09-12T00:24:41.632Z,101286.34
2022-09-12T00:27:08.331Z,101287.66
2022-09-12T00:29:35.737Z,101286.41
2022-09-12T00:32:02.574Z,101289.69
2022-09-12T00:34:29.232Z,101293.13
2022-09-12T00:36:55.964Z,101285.75
2022-09-12T00:39:22.609Z,101283.63
2022-09-12T00:41:49.305Z,101276.47
2022-09-12T00:44:16.015Z,101273.44
2022-09-12T00:46:48.095Z,101273.97
2022-09-12T00:49:16.254Z,101279.63
2022-09-12T00:51:48.235Z,101277.81
2022-09-12T00:54:19.664Z,101271.22
2022-09-12T00:56:47.418Z,101273.47
2022-09-12T00:59:47.016Z,101269.28
2022-09-12T01:02:13.798Z,101261.59
2022-09-12T01:04:41.297Z,101258.97
2022-09-12T01:07:08.704Z,101261.75
2022-09-12T01:09:37.077Z,101260.28
2022-09-12T01:12:04.249Z,101256.56
2022-09-12T01:14:31.598Z,101262.56
2022-09-12T01:16:58.413Z,101250.13
2022-09-12T01:19:54.682Z,101252.41
2022-09-12T01:22:43.562Z,101254.19
2022-09-12T01:25:28.671Z,101250.13
2022-09-12T01:28:31.725Z,101252.44
2022-09-12T01:31:08.398Z,101248.75
2022-09-12T01:34:13.059Z,101243.56
2022-09-12T01:37:04.442Z,101247.00
2022-09-12T01:39:43.770Z,101232.66
2022-09-12T01:42:32.426Z,101241.16
2022-09-12T01:45:14.458Z,101235.84
2022-09-12T01:47:45.705Z,101227.22
2022-09-12T01:50:20.091Z,101225.69
2022-09-12T01:52:57.514Z,101234.91
2022-09-12T01:55:28.433Z,101229.41
2022-09-12T01:57:59.475Z,101217.44
2022-09-12T02:00:26.535Z,101214.91
2022-09-12T02:03:03.147Z,101215.38
2022-09-12T02:05:33.902Z,101208.44
2022-09-12T02:08:25.042Z,101209.91
2022-09-12T02:11:10.584Z,101206.41
2022-09-12T02:13:37.408Z,101199.72
2022-09-12T02:16:10.605Z,101202.91
2022-09-12T02:18:45.723Z,101190.78
2022-09-12T02:21:12.967Z,101187.94
2022-09-12T02:23:43.467Z,101197.94
2022-09-12T02:26:19.505Z,101203.50
2022-09-12T02:28:47.572Z,101205.63
2022-09-12T02:31:23.329Z,101211.81
2022-09-12T02:33:59.387Z,101207.84
2022-09-12T02:36:26.968Z,101207.03
2022-09-12T02:38:53.667Z,101208.69
2022-09-12T02:41:21.023Z,101210.53
2022-09-12T02:43:48.428Z,101186.31
2022-09-12T02:46:39.508Z,101204.88
2022-09-12T02:49:07.373Z,101206.53
2022-09-12T02:51:35.951Z,101194.28
2022-09-12T02:54:03.574Z,101196.19
2022-09-12T02:56:31.135Z,101191.94
2022-09-12T02:59:02.651Z,101194.06
2022-09-12T03:01:46.364Z,101187.25
2022-09-12T03:04:46.367Z,101191.03
2022-09-12T03:07:21.703Z,101186.00
2022-09-12T03:10:07.138Z,101188.31
2022-09-12T03:13:11.257Z,101191.50
2022-09-12T03:15:48.428Z,101190.00
2022-09-12T03:18:31.765Z,101186.72
2022-09-12T03:21:11.745Z,101184.88
2022-09-12T03:23:47.783Z,101184.16
2022-09-12T03:26:21.305Z,101179.66
2022-09-12T03:28:49.684Z,101170.88
2022-09-12T03:31:18.617Z,101176.88
2022-09-12T03:33:45.905Z,101179.97
2022-09-12T03:36:31.526Z,101174.97
2022-09-12T03:38:58.335Z,101171.69
2022-09-12T03:41:25.082Z,101173.66
2022-09-12T03:43:52.022Z,101171.69
2022-09-12T03:46:18.726Z,101167.63
2022-09-12T03:48:46.068Z,101166.81
2022-09-12T03:51:13.019Z,101170.34
2022-09-12T03:53:39.739Z,101156.81
2022-09-12T03:56:08.598Z,101155.31
2022-09-12T03:58:36.427Z,101159.34
2022-09-12T04:01:12.627Z,101162.56
2022-09-12T04:03:40.609Z,101152.84
2022-09-12T04:06:08.230Z,101149.19
2022-09-12T04:08:38.533Z,101156.09
2022-09-12T04:11:07.088Z,101151.44
2022-09-12T04:13:35.227Z,101152.97
2022-09-12T04:16:02.190Z,101145.72
2022-09-12T04:18:28.893Z,101144.22
2022-09-12T04:20:55.592Z,101139.72
2022-09-12T04:23:22.445Z,101140.34
2022-09-12T04:25:56.873Z,101138.97
2022-09-12T04:28:24.925Z,101144.38
2022-09-12T04:30:52.116Z,101143.25
2022-09-12T04:33:18.949Z,101148.09
2022-09-12T04:35:45.617Z,101144.69
2022-09-12T04:38:12.371Z,101150.13
2022-09-12T04:40:39.085Z,101143.88
2022-09-12T04:43:09.231Z,101156.25
2022-09-12T04:45:37.995Z,101146.22
2022-09-12T04:48:04.904Z,101147.25
2022-09-12T04:50:31.592Z,101147.88
2022-09-12T04:52:58.251Z,101154.44
2022-09-12T04:55:25.393Z,101146.41
2022-09-12T04:57:53.019Z,101143.13
2022-09-12T05:00:20.769Z,101134.81
2022-09-12T05:02:47.743Z,101141.91
2022-09-12T05:05:14.450Z,101149.66
2022-09-12T05:07:41.205Z,101147.94
2022-09-12T05:10:09.456Z,101143.44
2022-09-12T05:12:36.820Z,101143.94
2022-09-12T05:15:04.692Z,101151.19
2022-09-12T05:17:31.364Z,101147.84
2022-09-12T05:19:58.131Z,101143.47
2022-09-12T05:22:25.490Z,101149.13
2022-09-12T05:24:52.166Z,101149.25
2022-09-12T05:27:18.855Z,101153.53
2022-09-12T05:29:45.642Z,101157.22
2022-09-12T05:32:12.541Z,101151.28
2022-09-12T05:34:40.331Z,101157.03
2022-09-12T05:37:07.020Z,101162.28
2022-09-12T05:39:33.808Z,101167.72
2022-09-12T05:42:00.510Z,101162.75
2022-09-12T05:44:27.149Z,101158.34
2022-09-12T05:46:53.861Z,101173.06
2022-09-12T05:49:21.610Z,101169.88
2022-09-12T05:51:48.508Z,101179.91
2022-09-12T05:54:18.238Z,101185.00
2022-09-12T05:56:45.457Z,101183.75
2022-09-12T05:59:20.833Z,101184.56
2022-09-12T06:01:48.853Z,101190.91
2022-09-12T06:04:16.037Z,101189.97
2022-09-12T06:06:47.448Z,101187.38
2022-09-12T06:09:16.100Z,101191.63
2022-09-12T06:11:43.643Z,101193.06
2022-09-12T06:14:12.285Z,101194.47
2022-09-12T06:16:39.402Z,101183.00
2022-09-12T06:19:32.331Z,101180.16
2022-09-12T06:21:58.954Z,101191.13
2022-09-12T06:24:25.833Z,101189.59
2022-09-12T06:26:55.314Z,101191.56
2022-09-12T06:29:23.133Z,101182.22
2022-09-12T06:31:49.901Z,101189.28
2022-09-12T06:34:16.812Z,101187.97
2022-09-12T06:36:48.122Z,101184.34
2022-09-12T06:39:17.523Z,101183.81
2022-09-12T06:41:44.904Z,101177.44
2022-09-12T06:46:48.068Z,101165.63
2022-09-12T06:49:15.676Z,101170.50
2022-09-12T06:51:42.915Z,101177.84
2022-09-12T06:54:14.869Z,101162.94
2022-09-12T06:56:41.870Z,101172.69
2022-09-12T06:59:08.863Z,101169.56
2022-09-12T07:01:35.630Z,101177.00
2022-09-12T07:04:03.945Z,101175.13
2022-09-12T07:06:39.982Z,101175.63
2022-09-12T07:09:10.589Z,101167.50
2022-09-12T07:11:38.965Z,101167.84
2022-09-12T07:14:07.430Z,101174.75
2022-09-12T07:16:37.303Z,101156.19
2022-09-12T07:19:05.828Z,101167.75
2022-09-12T07:21:33.005Z,101169.19
2022-09-12T07:24:00.036Z,101169.47
2022-09-12T07:26:28.119Z,101177.16
2022-09-12T07:29:03.981Z,101175.00
2022-09-12T07:31:40.067Z,101175.69
2022-09-12T07:34:06.912Z,101165.91
2022-09-12T07:36:34.356Z,101158.59
2022-09-12T07:39:01.653Z,101154.81
2022-09-12T07:41:30.517Z,101147.91
2022-09-12T07:43:59.157Z,101140.59
2022-09-12T07:46:28.216Z,101151.31
2022-09-12T07:48:58.075Z,101156.41
2022-09-12T07:51:26.200Z,101143.78
2022-09-12T07:53:53.079Z,101145.72
2022-09-12T07:56:22.010Z,101150.34
2022-09-12T07:58:50.045Z,101152.66
2022-09-12T08:01:19.420Z,101158.78
2022-09-12T08:03:50.713Z,101158.22
2022-09-12T08:06:24.570Z,101166.72
2022-09-12T08:08:52.699Z,101161.94
2022-09-12T08:11:20.832Z,101150.09
2022-09-12T08:13:52.960Z,101156.06
2022-09-12T08:16:23.100Z,101158.00
2022-09-12T08:18:50.699Z,101159.97
2022-09-12T08:21:26.213Z,101167.41
2022-09-12T08:23:55.533Z,101157.25
2022-09-12T08:26:23.498Z,101152.13
2022-09-12T08:28:51.284Z,101144.50
2022-09-12T08:31:21.626Z,101149.28
2022-09-12T08:33:48.491Z,101140.22
2022-09-12T08:36:17.657Z,101141.03
2022-09-12T08:38:46.431Z,101147.34
2022-09-12T08:41:25.142Z,101143.75
2022-09-12T08:44:03.566Z,101154.44
2022-09-12T08:46:39.203Z,101146.19
2022-09-12T08:49:10.286Z,101150.91
2022-09-12T08:51:38.287Z,101140.59
2022-09-12T08:54:10.074Z,101133.56
2022-09-12T08:56:37.895Z,101144.91
2022-09-12T08:59:04.694Z,101137.28
2022-09-12T09:01:35.829Z,101139.00
2022-09-12T09:04:41.676Z,101147.75
2022-09-12T09:07:39.434Z,101144.97
2022-09-12T09:10:26.703Z,101148.13
2022-09-12T09:13:08.069Z,101142.97
2022-09-12T09:15:58.524Z,101146.50
2022-09-12T09:18:29.038Z,101147.38
2022-09-12T09:21:03.763Z,101140.19
2022-09-12T09:23:34.637Z,101129.03
2022-09-12T09:26:09.601Z,101129.13
2022-09-12T09:28:43.593Z,101133.50
2022-09-12T09:31:21.846Z,101124.41
2022-09-12T09:33:55.459Z,101122.50
2022-09-12T09:36:40.663Z,101120.47
2022-09-12T09:39:13.567Z,101112.59
2022-09-12T09:42:10.433Z,101113.78
2022-09-12T09:44:37.600Z,101109.41
2022-09-12T09:47:05.331Z,101117.66
2022-09-12T09:49:34.700Z,101100.31
2022-09-12T09:52:02.135Z,101101.16
2022-09-12T09:54:41.949Z,101094.03
2022-09-12T09:57:37.086Z,101102.31
2022-09-12T10:00:28.122Z,101099.53
2022-09-12T10:03:13.938Z,101095.56
2022-09-12T10:05:51.721Z,101089.28
2022-09-12T10:08:27.814Z,101081.69
2022-09-12T10:11:08.862Z,101071.34
2022-09-12T10:13:39.230Z,101075.34
2022-09-12T10:16:18.973Z,101072.22
2022-09-12T10:18:46.094Z,101073.72
2022-09-12T10:21:14.438Z,101070.66
2022-09-12T10:23:42.217Z,101063.88
2022-09-12T10:26:11.413Z,101055.13
2022-09-12T10:28:51.705Z,101056.44
2022-09-12T10:31:28.927Z,101055.53
2022-09-12T10:33:57.957Z,101058.84
2022-09-12T10:36:25.351Z,101050.88
2022-09-12T10:38:55.073Z,101052.38
2022-09-12T10:41:24.597Z,101052.41
2022-09-12T10:43:51.551Z,101054.06
2022-09-12T10:46:18.329Z,101044.44
2022-09-12T10:48:49.818Z,101039.63
2022-09-12T10:51:25.818Z,101040.16
2022-09-12T10:54:03.424Z,101033.94
2022-09-12T10:56:36.959Z,101028.66
2022-09-12T10:59:22.338Z,101034.59
2022-09-12T11:01:53.212Z,101030.34
2022-09-12T11:04:46.409Z,101032.69
2022-09-12T11:07:58.197Z,101030.25
2022-09-12T11:11:00.533Z,101019.13
2022-09-12T11:13:51.413Z,101024.81
2022-09-12T11:16:27.661Z,101020.47
2022-09-12T11:19:11.136Z,101014.06
2022-09-12T11:22:22.350Z,101012.16
2022-09-12T11:25:05.122Z,101008.47
2022-09-12T11:27:54.035Z,101002.97
2022-09-12T11:30:20.933Z,101005.75
2022-09-12T11:33:08.190Z,101009.72
2022-09-12T11:35:57.568Z,101003.34
2022-09-12T11:38:43.203Z,101001.06
2022-09-12T11:41:11.918Z,100996.97
2022-09-12T11:43:41.889Z,100995.41
2022-09-12T11:46:17.330Z,100997.25
2022-09-12T11:49:17.526Z,100996.84
2022-09-12T11:51:59.701Z,100996.03
2022-09-12T11:54:49.114Z,101002.13
2022-09-12T11:57:28.025Z,101000.16
2022-09-12T12:00:10.159Z,100999.78
2022-09-12T12:02:43.789Z,100994.38
2022-09-12T12:05:26.813Z,100992.09
2022-09-12T12:07:58.872Z,100983.44
2022-09-12T12:10:48.828Z,100986.88
2022-09-12T12:13:15.643Z,100986.06
2022-09-12T12:15:51.843Z,100997.56
2022-09-12T12:18:23.210Z,100995.19
2022-09-12T12:20:51.009Z,100989.63
2022-09-12T12:23:35.341Z,100988.13
2022-09-12T12:26:04.762Z,100988.03
2022-09-12T12:28:50.394Z,100972.75
2022-09-12T12:31:18.571Z,100970.19
2022-09-12T12:33:45.293Z,100961.69
2022-09-12T12:36:41.898Z,100967.41
2022-09-12T12:39:32.077Z,100971.28
2022-09-12T12:41:59.907Z,100959.44
2022-09-12T12:44:45.113Z,100953.34
2022-09-12T12:47:18.067Z,100949.69
2022-09-12T12:49:52.009Z,100949.44
2022-09-12T12:52:19.384Z,100945.66
2022-09-12T12:54:46.365Z,100942.88
2022-09-12T12:57:13.055Z,100938.78
2022-09-12T12:59:48.145Z,100946.00
2022-09-12T13:02:23.382Z,100939.59
2022-09-12T13:04:50.515Z,100944.97
2022-09-12T13:07:30.371Z,100934.78
2022-09-12T13:09:57.936Z,100937.59
2022-09-12T13:12:28.474Z,100946.25
2022-09-12T13:15:00.592Z,100939.84
2022-09-12T13:17:40.189Z,100943.28
2022-09-12T13:20:30.881Z,100938.94
2022-09-12T13:22:58.250Z,100943.84
2022-09-12T13:25:28.307Z,100927.13
2022-09-12T13:28:06.339Z,100931.84
2022-09-12T13:30:42.524Z,100912.66
2022-09-12T13:33:41.716Z,100899.81
2022-09-12T13:36:14.667Z,100907.88
2022-09-12T13:38:58.098Z,100907.06
2022-09-12T13:41:43.037Z,100905.41
2022-09-12T13:44:13.291Z,100906.81
2022-09-12T13:46:40.543Z,100894.13
2022-09-12T13:49:24.032Z,100891.34
2022-09-12T13:52:15.108Z,100896.56
2022-09-12T13:54:44.926Z,100883.59
2022-09-12T13:57:33.578Z,100883.31
2022-09-12T14:00:02.098Z,100886.91
2022-09-12T14:02:35.462Z,100888.63
2022-09-12T14:05:12.155Z,100882.81
2022-09-12T14:07:55.235Z,100886.91
2022-09-12T14:10:28.229Z,100880.84
2022-09-12T14:12:57.292Z,100874.94
2022-09-12T14:15:27.215Z,100881.19
2022-09-12T14:17:57.904Z,100873.63
2022-09-12T14:20:26.548Z,100864.44
2022-09-12T14:22:53.451Z,100867.19
2022-09-12T14:25:22.843Z,100863.66
2022-09-12T14:27:54.460Z,100872.91
2022-09-12T14:30:33.297Z,100866.56
2022-09-12T14:33:18.339Z,100870.06
2022-09-12T14:35:49.787Z,100858.25
2022-09-12T14:38:16.540Z,100854.63
2022-09-12T14:40:51.130Z,100844.59
2022-09-12T14:43:26.503Z,100839.84
2022-09-12T14:46:06.402Z,100843.09
2022-09-12T14:48:36.703Z,100837.47
2022-09-12T14:51:04.180Z,100836.84
2022-09-12T14:53:33.867Z,100834.28
2022-09-12T14:56:09.580Z,100832.72
2022-09-12T14:58:37.461Z,100826.50
2022-09-12T15:01:07.371Z,100834.97
2022-09-12T15:03:47.361Z,100833.72
2022-09-12T15:06:39.791Z,100833.09
2022-09-12T15:09:09.130Z,100831.16
2022-09-12T15:11:35.835Z,100835.63
2022-09-12T15:14:29.013Z,100830.38
2022-09-12T15:16:55.782Z,100823.47
2022-09-12T15:19:22.664Z,100818.13
2022-09-12T15:21:49.317Z,100806.47
2022-09-12T15:24:16.017Z,100811.41
2022-09-12T15:26:42.779Z,100804.56
2022-09-12T15:29:11.479Z,100800.91
2022-09-12T15:31:40.289Z,100803.41
2022-09-12T15:34:07.004Z,100805.28
2022-09-12T15:36:33.907Z,100798.94
2022-09-12T15:39:00.684Z,100795.44
2022-09-12T15:41:32.092Z,100797.22
2022-09-12T15:43:59.164Z,100802.53
2022-09-12T15:46:26.213Z,100793.69
2022-09-12T15:48:53.063Z,100787.16
2022-09-12T15:51:22.079Z,100782.66
2022-09-12T15:53:50.495Z,100779.22
2022-09-12T15:56:18.857Z,100780.31
2022-09-12T15:58:58.379Z,100771.72
2022-09-12T16:01:26.499Z,100769.56
2022-09-12T16:03:53.318Z,100778.78
2022-09-12T16:06:20.043Z,100766.97
2022-09-12T16:08:46.821Z,100779.00
2022-09-12T16:11:27.085Z,100761.34
2022-09-12T16:13:54.565Z,100749.06
2022-09-12T16:16:21.673Z,100748.16
2022-09-12T16:18:48.494Z,100755.81
2022-09-12T16:21:15.983Z,100747.25
2022-09-12T16:23:52.121Z,100754.63
2022-09-12T16:26:19.645Z,100750.03
2022-09-12T16:28:46.517Z,100749.44
2022-09-12T16:31:14.239Z,100752.94
2022-09-12T16:33:42.261Z,100740.66
2022-09-12T16:36:13.047Z,100733.69
2022-09-12T16:41:37.575Z,100729.00
2022-09-12T16:44:07.434Z,100732.69
2022-09-12T16:46:35.005Z,100717.97
2022-09-12T16:49:02.252Z,100722.16
2022-09-12T16:51:36.421Z,100711.13
2022-09-12T16:54:08.852Z,100724.72
2022-09-12T16:56:39.167Z,100700.13
2022-09-12T16:59:09.385Z,100700.81
2022-09-12T17:01:40.018Z,100702.78
2022-09-12T17:04:07.748Z,100685.13
2022-09-12T17:06:35.450Z,100704.44
2022-09-12T17:09:04.357Z,100694.03
2022-09-12T17:11:37.479Z,100687.13
2022-09-12T17:14:07.092Z,100689.75
2022-09-12T17:16:36.908Z,100699.81
2022-09-12T17:19:06.240Z,100685.47
2022-09-12T17:21:34.235Z,100679.94
2022-09-12T17:24:01.491Z,100677.59
2022-09-12T17:26:28.534Z,100684.00
2022-09-12T17:28:55.366Z,100682.56
2022-09-12T17:31:22.643Z,100692.44
2022-09-12T17:33:49.906Z,100683.66
2022-09-12T17:36:18.074Z,100685.47
2022-09-12T17:38:46.418Z,100683.56
2022-09-12T17:41:18.666Z,100688.53
2022-09-12T17:43:47.780Z,100684.88
2022-09-12T17:46:14.800Z,100682.53
2022-09-12T17:48:41.979Z,100681.69
2022-09-12T17:51:13.957Z,100672.66
2022-09-12T17:53:42.213Z,100679.44
2022-09-12T17:56:10.466Z,100686.59
2022-09-12T17:58:39.058Z,100698.44
2022-09-12T18:01:25.827Z,100698.50
2022-09-12T18:03:56.906Z,100701.94
2022-09-12T18:06:24.707Z,100698.69
2022-09-12T18:08:51.781Z,100705.81
2022-09-12T18:11:20.241Z,100698.69
2022-09-12T18:13:46.993Z,100704.41
2022-09-12T18:16:14.312Z,100697.31
2022-09-12T18:18:41.279Z,100698.16
2022-09-12T18:21:09.002Z,100697.78
2022-09-12T18:23:35.983Z,100706.88
2022-09-12T18:26:06.320Z,100708.97
2022-09-12T18:28:34.243Z,100709.03
2022-09-12T18:31:01.808Z,100696.03
2022-09-12T18:33:28.665Z,100689.69
2022-09-12T18:35:55.297Z,100693.16
2022-09-12T18:38:22.732Z,100689.22
2022-09-12T18:40:49.519Z,100694.78
2022-09-12T18:43:16.376Z,100703.13
2022-09-12T18:45:44.492Z,100700.00
2022-09-12T18:48:12.736Z,100701.97
2022-09-12T18:50:39.330Z,100704.47
2022-09-12T18:53:06.077Z,100697.84
2022-09-12T18:55:33.279Z,100690.38
2022-09-12T18:58:00.513Z,100690.41
2022-09-12T19:00:27.416Z,100690.47
2022-09-12T19:02:54.397Z,100684.63
2022-09-12T19:05:21.620Z,100687.00
2022-09-12T19:07:48.389Z,100694.91
2022-09-12T19:10:15.460Z,100694.94
2022-09-12T19:12:42.220Z,100692.97
2022-09-12T19:15:10.029Z,100699.69
2022-09-12T19:17:39.815Z,100697.34
2022-09-12T19:20:06.809Z,100695.47
2022-09-12T19:22:33.672Z,100696.69
2022-09-12T19:25:00.371Z,100705.72
2022-09-12T19:27:27.775Z,100707.31
2022-09-12T19:29:57.065Z,100708.44
2022-09-12T19:32:23.968Z,100721.50
2022-09-12T19:34:52.218Z,100727.84
2022-09-12T19:37:19.094Z,100714.81
2022-09-12T19:39:47.100Z,100717.56
2022-09-12T19:42:14.338Z,100724.72
2022-09-12T19:44:41.133Z,100714.09
2022-09-12T19:47:09.474Z,100698.34
2022-09-12T19:49:37.329Z,100700.31
2022-09-12T19:52:04.122Z,100693.59
2022-09-12T19:54:31.016Z,100698.69
2022-09-12T19:56:58.215Z,100683.72
2022-09-12T19:59:25.273Z,100673.88
2022-09-12T20:01:56.897Z,100668.75
2022-09-12T20:04:23.843Z,100664.84
2022-09-12T20:06:51.392Z,100671.56
2022-09-12T20:09:18.051Z,100675.56
2022-09-12T20:11:45.001Z,100674.34
2022-09-12T20:14:12.128Z,100668.78
2022-09-12T20:16:42.138Z,100669.25
2022-09-12T20:19:10.550Z,100673.59
2022-09-12T20:21:37.884Z,100668.06
2022-09-12T20:24:09.457Z,100656.63
2022-09-12T20:26:39.721Z,100645.63
2022-09-12T20:29:06.866Z,100645.66
2022-09-12T20:31:35.099Z,100657.88
2022-09-12T20:34:04.012Z,100672.13
2022-09-12T20:36:30.825Z,100684.34
2022-09-12T20:39:00.180Z,100691.06
2022-09-12T20:41:29.675Z,100692.59
2022-09-12T20:43:57.364Z,100692.63
2022-09-12T20:46:25.467Z,100686.72
2022-09-12T20:48:52.551Z,100688.28
2022-09-12T20:51:21.756Z,100689.94
2022-09-12T20:53:49.046Z,100688.72
2022-09-12T20:56:15.961Z,100692.28
2022-09-12T20:58:44.288Z,100685.59
2022-09-12T21:01:12.374Z,100691.50
2022-09-12T21:03:45.569Z,100684.00
2022-09-12T21:06:13.774Z,100683.59
2022-09-12T21:08:40.848Z,100693.47
2022-09-12T21:11:07.727Z,100697.84
2022-09-12T21:13:39.737Z,100702.94
2022-09-12T21:16:17.716Z,100687.19
2022-09-12T21:18:45.040Z,100697.81
2022-09-12T21:21:14.618Z,100703.75
2022-09-12T21:23:41.954Z,100703.34
2022-09-12T21:26:08.901Z,100698.59
2022-09-12T21:28:35.657Z,100713.63
2022-09-12T21:31:02.424Z,100724.66
2022-09-12T21:33:29.521Z,100719.16
2022-09-12T21:36:01.914Z,100726.25
2022-09-12T21:38:28.865Z,100719.91
2022-09-12T21:41:09.991Z,100729.41
2022-09-12T21:43:37.751Z,100735.69
2022-09-12T21:46:05.382Z,100730.16
2022-09-12T21:48:32.190Z,100725.06
2022-09-12T21:51:00.681Z,100715.59
2022-09-12T21:53:27.479Z,100723.47
2022-09-12T21:55:54.365Z,100727.00
2022-09-12T21:58:21.161Z,100726.63
2022-09-12T22:00:49.430Z,100720.31
2022-09-12T22:03:17.222Z,100715.59
2022-09-12T22:05:44.611Z,100722.28
2022-09-12T22:08:11.572Z,100723.06
2022-09-12T22:10:42.208Z,100729.78
2022-09-12T22:13:09.923Z,100727.00
2022-09-12T22:15:40.952Z,100723.81
2022-09-12T22:18:08.171Z,100714.34
2022-09-12T22:20:34.994Z,100712.78
2022-09-12T22:23:24.549Z,100719.50
2022-09-12T22:25:54.504Z,100710.81
2022-09-12T22:28:22.348Z,100706.03
2022-09-12T22:30:49.917Z,100699.75
2022-09-12T22:33:16.860Z,100695.78
2022-09-12T22:35:44.230Z,100693.84
2022-09-12T22:38:11.152Z,100696.63
2022-09-12T22:40:38.452Z,100698.59
2022-09-12T22:43:05.259Z,100706.50
2022-09-12T22:45:32.083Z,100693.47
2022-09-12T22:48:00.726Z,100691.50
2022-09-12T22:50:28.637Z,100695.09
2022-09-12T22:52:57.553Z,100696.28
2022-09-12T22:55:24.668Z,100684.84
2022-09-12T22:57:51.561Z,100686.81
2022-09-12T23:00:19.465Z,100671.81
2022-09-12T23:02:49.218Z,100668.28
2022-09-12T23:05:16.150Z,100669.84
2022-09-12T23:07:43.000Z,100688.00
2022-09-12T23:10:10.658Z,100680.91
2022-09-12T23:12:37.595Z,100689.56
2022-09-12T23:15:04.974Z,100693.91
2022-09-12T23:17:35.163Z,100701.41
2022-09-12T23:20:02.885Z,100710.41
2022-09-12T23:22:29.738Z,100708.84
2022-09-12T23:24:56.503Z,100706.06
2022-09-12T23:27:23.424Z,100707.25
2022-09-12T23:29:52.486Z,100693.47
2022-09-12T23:32:20.137Z,100687.97
2022-09-12T23:34:48.421Z,100679.72
2022-09-12T23:37:15.780Z,100696.16
2022-09-12T23:39:42.758Z,100685.56
2022-09-12T23:42:09.589Z,100694.28
2022-09-12T23:44:36.271Z,100689.16
2022-09-12T23:47:03.486Z,100683.16
2022-09-12T23:49:30.337Z,100678.44
2022-09-12T23:51:57.634Z,100680.34
2022-09-12T23:54:25.384Z,100677.97
2022-09-12T23:56:52.496Z,100679.94
2022-09-12T23:59:19.381Z,100673.94
